Time;durP1;ratioP1;P1;durP2;ratioP2;P2;SDS_P1;SDS_P2;PMS_P1;PMS_P2;Temp;Humidity;BMP_temperature;BMP_pressure;BME280_temperature;BME280_humidity;BME280_pressure;Samples;Min_cycle;Max_cycle;Signal;HPM_P1;HPM_P2
2021/01/04 00:03:06;;;;;;;2.55;0.70;;;4.20;99.90;;;;;;4989943;28;20050;-58
2021/01/04 00:05:52;;;;;;;3.75;0.77;;;4.20;99.90;;;;;;4990077;28;20065;-54
2021/01/04 00:08:30;;;;;;;2.10;0.57;;;4.20;99.90;;;;;;4989973;28;20034;-55
2021/01/04 00:11:33;;;;;;;1.60;0.30;;;4.20;99.90;;;;;;4989996;28;20204;-52
2021/01/04 00:14:20;;;;;;;2.13;0.60;;;4.40;99.90;;;;;;4990156;28;20391;-58
2021/01/04 00:16:57;;;;;;;4.82;0.65;;;4.60;99.90;;;;;;4989912;28;20053;-58
2021/01/04 00:20:08;;;;;;;1.75;0.65;;;4.80;99.90;;;;;;4989632;28;20364;-53
2021/01/04 00:22:44;;;;;;;2.22;0.68;;;4.80;99.90;;;;;;4984641;28;20038;-49
2021/01/04 00:25:18;;;;;;;;;;;4.70;99.90;;;;;;4990085;28;20483;-57
2021/01/04 00:28:07;;;;;;;2.90;0.73;;;4.60;99.90;;;;;;4989699;28;20000;-56
2021/01/04 00:30:42;;;;;;;3.53;0.98;;;4.50;99.90;;;;;;4989672;28;20080;-54
2021/01/04 00:33:31;;;;;;;4.03;1.30;;;4.30;99.90;;;;;;4989631;28;20034;-56
2021/01/04 00:36:00;;;;;;;4.90;1.85;;;4.20;99.90;;;;;;4989536;28;20057;-47
2021/01/04 00:38:43;;;;;;;3.00;1.20;;;4.10;99.90;;;;;;4989728;28;20117;-52
2021/01/04 00:41:38;;;;;;;5.35;2.05;;;4.00;99.90;;;;;;4989577;28;20035;-50
2021/01/04 00:44:09;;;;;;;3.28;1.73;;;3.90;99.90;;;;;;4989433;28;20046;-56
2021/01/04 00:46:47;;;;;;;4.25;1.95;;;3.90;99.90;;;;;;4989251;28;20038;-53
2021/01/04 00:49:23;;;;;;;2.67;1.27;;;3.80;99.90;;;;;;4989741;28;20034;-53
2021/01/04 00:52:05;;;;;;;3.17;1.20;;;3.90;99.90;;;;;;4988582;28;20031;-55
2021/01/04 00:54:52;;;;;;;2.00;0.95;;;3.90;99.90;;;;;;4989247;28;20056;-53
2021/01/04 00:57:40;;;;;;;5.07;1.55;;;3.90;99.90;;;;;;4989299;28;20057;-52
2021/01/04 01:00:29;;;;;;;3.92;1.38;;;3.80;99.90;;;;;;4989079;28;20528;-50
2021/01/04 01:03:16;;;;;;;4.40;1.60;;;3.70;99.90;;;;;;4989021;28;20145;-54
2021/01/04 01:06:08;;;;;;;4.07;2.00;;;3.60;99.90;;;;;;4998236;28;20494;-51
2021/01/04 01:08:37;;;;;;;3.38;1.20;;;3.50;99.90;;;;;;4983864;28;20060;-53
2021/01/04 01:11:11;;;;;;;3.78;1.58;;;3.50;99.90;;;;;;4987508;28;20062;-48
2021/01/04 01:13:54;;;;;;;3.72;1.55;;;3.50;99.90;;;;;;5006598;28;20441;-50
2021/01/04 01:16:26;;;;;;;3.17;1.55;;;3.50;99.90;;;;;;4997117;28;20493;-52
2021/01/04 01:19:19;;;;;;;5.30;1.70;;;3.50;99.90;;;;;;5007044;28;20402;-52
2021/01/04 01:21:46;;;;;;;2.58;1.50;;;3.50;99.90;;;;;;5007409;28;20100;-55
2021/01/04 01:24:12;;;;;;;4.97;1.08;;;3.50;99.90;;;;;;5006891;28;20121;-52
2021/01/04 01:27:16;;;;;;;4.47;1.20;;;3.40;99.90;;;;;;5007114;28;20184;-51
2021/01/04 01:29:47;;;;;;;3.10;1.23;;;3.30;99.90;;;;;;4964074;28;20046;-50
2021/01/04 01:32:31;;;;;;;5.80;1.60;;;3.40;99.90;;;;;;4963338;28;20139;-54
2021/01/04 01:35:11;;;;;;;2.72;0.75;;;3.40;99.90;;;;;;4966747;28;20038;-54
2021/01/04 01:38:09;;;;;;;4.47;1.10;;;3.40;99.90;;;;;;4966681;28;20038;-53
2021/01/04 01:41:20;;;;;;;4.15;1.40;;;3.50;99.90;;;;;;4966440;28;20078;-49
2021/01/04 01:43:51;;;;;;;2.92;1.27;;;3.40;99.90;;;;;;4963275;28;20054;-51
2021/01/04 01:46:27;;;;;;;3.85;1.25;;;3.30;99.90;;;;;;4966556;28;20129;-53
2021/01/04 01:49:02;;;;;;;2.85;0.95;;;3.20;99.90;;;;;;4966534;28;20533;-48
2021/01/04 01:51:42;;;;;;;2.85;1.33;;;3.20;99.90;;;;;;4966495;28;20077;-51
2021/01/04 01:54:26;;;;;;;3.38;1.17;;;3.20;99.90;;;;;;4966417;28;20117;-56
2021/01/04 01:57:00;;;;;;;2.63;1.00;;;3.20;99.90;;;;;;4966245;28;20034;-57
2021/01/04 01:59:57;;;;;;;4.15;1.08;;;3.20;99.90;;;;;;4966110;28;20038;-56
2021/01/04 02:02:32;;;;;;;3.20;1.10;;;3.20;99.90;;;;;;4966375;28;20540;-54
2021/01/04 02:04:57;;;;;;;4.50;1.88;;;3.20;99.90;;;;;;4977759;28;20034;-54
2021/01/04 02:07:51;;;;;;;4.68;2.35;;;3.30;99.90;;;;;;4991918;28;20034;-55
2021/01/04 02:10:25;;;;;;;3.47;2.20;;;3.40;99.90;;;;;;4991949;28;20038;-48
2021/01/04 02:13:21;;;;;;;7.75;2.38;;;3.50;99.90;;;;;;4991450;28;20254;-55
2021/01/04 02:15:57;;;;;;;4.05;1.73;;;3.50;99.90;;;;;;4991798;28;20564;-56
2021/01/04 02:18:48;;;;;;;3.20;1.98;;;3.60;99.90;;;;;;5009540;28;20435;-49
2021/01/04 02:21:17;;;;;;;2.88;1.58;;;3.60;99.90;;;;;;4991843;28;20047;-54
2021/01/04 02:24:01;;;;;;;3.05;1.15;;;3.60;99.90;;;;;;5010410;28;20045;-54
2021/01/04 02:26:27;;;;;;;3.65;0.70;;;3.70;99.90;;;;;;4997879;28;20034;-51
2021/01/04 02:29:04;;;;;;;1.65;0.73;;;3.70;99.90;;;;;;4994918;28;20481;-52
2021/01/04 02:31:33;;;;;;;2.42;0.88;;;3.80;99.90;;;;;;4993975;28;20041;-56
2021/01/04 02:34:01;;;;;;;4.10;1.77;;;3.70;99.90;;;;;;4991142;28;20026;-55
2021/01/04 02:36:30;;;;;;;1.60;0.68;;;3.70;99.90;;;;;;5010117;28;20030;-58
2021/01/04 02:39:11;;;;;;;2.88;0.90;;;3.60;99.90;;;;;;4995070;28;20556;-53
2021/01/04 02:42:10;;;;;;;3.03;0.68;;;3.60;99.90;;;;;;4991551;28;20046;-55
2021/01/04 02:44:37;;;;;;;1.80;0.60;;;3.60;99.90;;;;;;4991644;28;20046;-55
2021/01/04 02:47:05;;;;;;;3.08;0.52;;;3.70;99.90;;;;;;4991488;28;20037;-54
2021/01/04 02:49:45;;;;;;;1.67;0.60;;;3.60;99.90;;;;;;4991817;28;20035;-54
2021/01/04 02:52:15;;;;;;;2.10;0.70;;;3.60;99.90;;;;;;4991629;28;20037;-56
2021/01/04 02:54:53;;;;;;;1.92;0.68;;;3.50;99.90;;;;;;4991532;28;20035;-48
2021/01/04 02:57:39;;;;;;;1.70;0.63;;;3.40;99.90;;;;;;4991574;28;20412;-56
2021/01/04 03:00:12;;;;;;;2.10;0.65;;;3.50;99.90;;;;;;4991425;28;20184;-55
2021/01/04 03:02:47;;;;;;;2.30;0.65;;;3.60;99.90;;;;;;4991359;28;20431;-54
2021/01/04 03:05:17;;;;;;;4.45;0.65;;;3.60;99.90;;;;;;4991259;28;20481;-55
2021/01/04 03:07:54;;;;;;;1.65;0.40;;;3.60;99.90;;;;;;4991211;28;20033;-55
2021/01/04 03:13:13;;;;;;;1.50;0.63;;;3.40;99.90;;;;;;4844903;23;20058;-54
2021/01/04 03:16:30;;;;;;;2.55;0.70;;;3.40;99.90;;;;;;4990388;28;20043;-50
2021/01/04 03:19:01;;;;;;;4.03;0.70;;;3.40;99.90;;;;;;4988310;28;20030;-56
2021/01/04 03:21:28;;;;;;;2.10;0.75;;;3.40;99.90;;;;;;4988008;28;20050;-53
2021/01/04 03:23:56;;;;;;;1.65;0.50;;;3.40;99.90;;;;;;4988345;28;20030;-52
2021/01/04 03:26:25;;;;;;;1.75;0.60;;;3.30;99.90;;;;;;4988038;28;20030;-56
2021/01/04 03:28:51;;;;;;;2.25;0.50;;;3.30;99.90;;;;;;4988049;28;20039;-53
2021/01/04 03:31:17;;;;;;;4.40;0.70;;;3.30;99.90;;;;;;4988077;28;20505;-53
2021/01/04 03:33:42;;;;;;;2.00;0.60;;;3.30;99.90;;;;;;4988054;28;20038;-52
2021/01/04 03:36:08;;;;;;;1.90;0.50;;;3.30;99.90;;;;;;4987759;28;20070;-54
2021/01/04 03:38:34;;;;;;;1.42;0.52;;;3.30;99.90;;;;;;4987945;28;20035;-55
2021/01/04 03:41:02;;;;;;;1.10;0.40;;;3.30;99.90;;;;;;4987634;28;20046;-57
2021/01/04 03:43:28;;;;;;;3.05;0.60;;;3.30;99.90;;;;;;4987935;28;20552;-55
2021/01/04 03:45:53;;;;;;;2.10;0.45;;;3.30;99.90;;;;;;4987742;28;20038;-57
2021/01/04 03:48:19;;;;;;;5.63;0.70;;;3.30;99.90;;;;;;4987614;28;20394;-54
2021/01/04 03:50:45;;;;;;;3.47;0.70;;;3.30;99.90;;;;;;4987591;28;20026;-55
2021/01/04 03:53:11;;;;;;;3.47;0.70;;;3.40;99.90;;;;;;4987705;28;20454;-56
2021/01/04 03:55:38;;;;;;;3.58;0.70;;;3.50;99.90;;;;;;4990142;28;20099;-57
2021/01/04 03:58:05;;;;;;;3.92;0.90;;;3.50;99.90;;;;;;4990355;28;20168;-57
2021/01/04 04:00:32;;;;;;;3.65;0.88;;;3.50;99.90;;;;;;4990219;28;20477;-55
2021/01/04 04:02:58;;;;;;;3.38;1.25;;;3.50;99.90;;;;;;4989998;28;20502;-55
2021/01/04 04:05:23;;;;;;;3.95;1.25;;;3.50;99.90;;;;;;5005041;28;20042;-54
2021/01/04 04:07:50;;;;;;;2.72;1.35;;;3.50;99.90;;;;;;4990650;28;20045;-51
2021/01/04 04:10:18;;;;;;;3.70;1.10;;;3.50;99.90;;;;;;4990965;28;20076;-55
2021/01/04 04:12:44;;;;;;;2.42;0.73;;;3.50;99.90;;;;;;4989722;28;20134;-54
2021/01/04 04:15:12;;;;;;;1.30;0.60;;;3.40;99.90;;;;;;4990198;28;20026;-57
2021/01/04 04:17:39;;;;;;;3.35;1.00;;;3.50;99.90;;;;;;4990134;28;20598;-55
2021/01/04 04:20:09;;;;;;;3.08;0.63;;;3.40;99.90;;;;;;4990262;28;20034;-56
2021/01/04 04:22:34;;;;;;;2.35;1.05;;;3.40;99.90;;;;;;4989966;28;20046;-55
2021/01/04 04:25:00;;;;;;;1.98;0.82;;;3.40;99.90;;;;;;4989966;28;20055;-55
2021/01/04 04:27:26;;;;;;;2.92;1.13;;;3.40;99.90;;;;;;4989602;28;20034;-51
2021/01/04 04:29:52;;;;;;;2.60;0.90;;;3.30;99.90;;;;;;4989865;28;20031;-56
2021/01/04 04:32:18;;;;;;;3.90;0.80;;;3.40;99.90;;;;;;4989859;28;20030;-57
2021/01/04 04:34:44;;;;;;;2.60;1.00;;;3.40;99.90;;;;;;4990159;28;20031;-54
2021/01/04 04:37:10;;;;;;;2.20;0.82;;;3.40;99.90;;;;;;4989803;28;20030;-56
2021/01/04 04:39:36;;;;;;;2.22;1.10;;;3.30;99.90;;;;;;4990030;28;20030;-54
2021/01/04 04:42:09;;;;;;;1.88;0.73;;;3.30;99.90;;;;;;4989980;28;20144;-54
2021/01/04 05:06:01;;;;;;;3.20;1.60;;;3.30;99.90;;;;;;4988924;28;20045;-51
2021/01/04 05:08:33;;;;;;;5.10;1.20;;;3.30;99.90;;;;;;4989480;28;20066;-48
2021/01/04 05:11:00;;;;;;;3.58;0.98;;;3.30;99.90;;;;;;4989163;28;20132;-51
2021/01/04 05:13:36;;;;;;;1.88;0.93;;;3.30;99.90;;;;;;4989431;28;20038;-51
2021/01/04 05:16:18;;;;;;;2.17;0.77;;;3.30;99.90;;;;;;4989052;28;20120;-53
2021/01/04 05:19:12;;;;;;;1.38;0.60;;;3.30;99.90;;;;;;4989451;28;20039;-51
2021/01/04 05:22:15;;;;;;;1.67;0.98;;;3.20;99.90;;;;;;4989180;28;20045;-54
2021/01/04 05:24:55;;;;;;;1.92;1.10;;;3.30;99.90;;;;;;4989559;28;20089;-54
2021/01/04 05:27:52;;;;;;;1.70;0.98;;;3.30;99.90;;;;;;4989158;28;20397;-53
2021/01/04 05:30:31;;;;;;;;;;;3.30;99.90;;;;;;4989413;28;20034;-51
2021/01/04 05:33:00;;;;;;;4.10;0.90;;;3.30;99.90;;;;;;4988743;28;19923;-47
2021/01/04 05:35:27;;;;;;;4.65;0.75;;;3.40;99.90;;;;;;4989158;28;20450;-54
2021/01/04 05:38:14;;;;;;;2.70;1.20;;;3.40;99.90;;;;;;4990092;28;20034;-56
2021/01/04 05:41:09;;;;;;;2.70;1.10;;;3.40;99.90;;;;;;4992766;28;20372;-52
2021/01/04 05:43:37;;;;;;;4.72;1.17;;;3.40;99.90;;;;;;4992895;28;20046;-52
2021/01/04 05:46:44;;;;;;;3.42;1.10;;;3.50;99.90;;;;;;4992813;28;20042;-48
2021/01/04 05:49:16;;;;;;;2.67;1.20;;;3.50;99.90;;;;;;4992950;28;20580;-51
2021/01/04 05:51:48;;;;;;;3.13;1.05;;;3.50;99.90;;;;;;5011696;28;20072;-53
2021/01/04 05:54:25;;;;;;;3.58;1.10;;;3.50;99.90;;;;;;5012169;28;20038;-55
2021/01/04 05:56:50;;;;;;;2.83;1.20;;;3.60;99.90;;;;;;5012096;28;20435;-53
2021/01/04 05:59:17;;;;;;;4.32;1.85;;;3.60;99.90;;;;;;5011952;28;20036;-55
2021/01/04 06:01:45;;;;;;;4.38;2.17;;;3.60;99.90;;;;;;5011720;28;20034;-54
2021/01/04 06:04:25;;;;;;;2.38;1.10;;;3.60;99.90;;;;;;5012082;28;20448;-51
2021/01/04 06:07:00;;;;;;;2.80;1.70;;;3.70;99.90;;;;;;5011877;28;20121;-54
2021/01/04 06:09:27;;;;;;;4.22;1.70;;;3.70;99.90;;;;;;5011863;28;20092;-56
2021/01/04 06:11:56;;;;;;;4.00;1.50;;;3.70;99.90;;;;;;5011427;28;20410;-53
2021/01/04 06:14:34;;;;;;;2.67;1.38;;;3.70;99.90;;;;;;5011557;28;20034;-51
2021/01/04 06:17:30;;;;;;;3.90;1.90;;;3.70;99.90;;;;;;5011585;28;20553;-53
2021/01/04 06:20:14;;;;;;;9.63;2.38;;;3.70;99.90;;;;;;5011115;28;20133;-48
2021/01/04 06:22:41;;;;;;;4.22;2.47;;;3.70;99.90;;;;;;5011253;28;20486;-51
2021/01/04 06:25:09;;;;;;;3.78;2.35;;;3.80;99.90;;;;;;5011568;28;20113;-51
2021/01/04 06:27:47;;;;;;;3.80;2.20;;;3.80;99.90;;;;;;5014731;28;20044;-51
2021/01/04 06:30:17;;;;;;;6.90;2.53;;;3.80;99.90;;;;;;5016994;28;20600;-54
2021/01/04 06:32:44;;;;;;;4.38;2.50;;;3.80;99.90;;;;;;5011245;28;20034;-55
2021/01/04 06:35:19;;;;;;;5.38;2.65;;;3.80;99.90;;;;;;5011422;28;20026;-58
2021/01/04 06:37:46;;;;;;;5.75;2.33;;;3.70;99.90;;;;;;5011433;28;20029;-55
2021/01/04 06:40:21;;;;;;;4.10;2.20;;;3.70;99.90;;;;;;5011184;28;20034;-51
2021/01/04 06:42:47;;;;;;;2.47;1.58;;;3.70;99.90;;;;;;5011161;28;20374;-51
2021/01/04 06:45:30;;;;;;;4.28;2.08;;;3.60;99.90;;;;;;5011371;28;20034;-54
2021/01/04 06:48:07;;;;;;;5.32;2.40;;;3.50;99.90;;;;;;5011371;28;20524;-51
2021/01/04 06:50:32;;;;;;;;;;;3.50;99.90;;;;;;5011655;28;20030;-55
2021/01/04 06:53:01;;;;;;;3.70;2.13;;;3.60;99.90;;;;;;5011064;28;19963;-56
2021/01/04 06:55:45;;;;;;;4.20;2.13;;;3.50;99.90;;;;;;5010917;28;20038;-56
2021/01/04 06:58:22;;;;;;;4.57;2.45;;;3.60;99.90;;;;;;5010846;28;20040;-50
2021/01/04 07:01:01;;;;;;;2.78;1.98;;;3.50;99.90;;;;;;5010928;28;20033;-52
2021/01/04 07:03:52;;;;;;;4.28;1.90;;;3.60;99.90;;;;;;5010886;28;20579;-51
2021/01/04 07:06:52;;;;;;;3.33;1.92;;;3.50;99.90;;;;;;4985873;28;20151;-54
2021/01/04 07:09:24;;;;;;;3.53;2.03;;;3.60;99.90;;;;;;4971916;28;20073;-49
2021/01/04 07:12:01;;;;;;;5.57;2.25;;;3.60;99.90;;;;;;4983568;28;20054;-68
2021/01/04 07:14:30;;;;;;;3.63;1.50;;;3.70;99.90;;;;;;4989357;28;20026;-53
2021/01/04 07:17:10;;;;;;;4.03;1.50;;;3.80;99.90;;;;;;4990749;28;20462;-52
2021/01/04 07:19:50;;;;;;;3.95;0.93;;;3.80;99.90;;;;;;4989112;28;20052;-51
2021/01/04 07:22:41;;;;;;;4.80;0.95;;;4.00;99.90;;;;;;4990464;28;20054;-55
2021/01/04 07:25:24;;;;;;;6.35;0.93;;;4.40;99.90;;;;;;4990964;28;20038;-57
2021/01/04 07:28:05;;;;;;;4.78;1.08;;;4.60;99.90;;;;;;4989900;28;20026;-50
2021/01/04 07:30:36;;;;;;;1.88;0.75;;;4.80;99.90;;;;;;4990954;28;20113;-49
2021/01/04 07:33:04;;;;;;;2.92;1.38;;;4.80;99.90;;;;;;4989422;28;20564;-50
2021/01/04 07:35:42;;;;;;;2.97;1.33;;;4.80;99.90;;;;;;4988183;28;20463;-52
2021/01/04 07:38:23;;;;;;;2.80;1.15;;;4.70;99.90;;;;;;4990667;28;20037;-55
2021/01/04 07:41:01;;;;;;;5.35;1.58;;;4.70;99.90;;;;;;4990533;28;20037;-54
2021/01/04 07:43:42;;;;;;;5.70;1.67;;;4.70;99.90;;;;;;4990923;28;20394;-57
2021/01/04 07:46:32;;;;;;;4.13;1.52;;;4.70;99.90;;;;;;4990359;28;20120;-51
2021/01/04 07:49:28;;;;;;;3.05;1.88;;;4.70;99.90;;;;;;4990385;28;20076;-49
2021/01/04 07:52:06;;;;;;;5.43;1.45;;;4.70;99.90;;;;;;4990431;28;20483;-50
2021/01/04 07:55:06;;;;;;;3.35;1.55;;;4.70;99.90;;;;;;4990068;28;20038;-53
2021/01/04 07:57:34;;;;;;;5.90;1.70;;;4.70;99.90;;;;;;4990072;28;20038;-52
2021/01/04 08:00:00;;;;;;;5.13;1.98;;;4.80;99.90;;;;;;4989821;28;20035;-52
2021/01/04 08:02:28;;;;;;;4.43;2.17;;;4.90;99.90;;;;;;4990118;28;20054;-51
2021/01/04 08:05:13;;;;;;;4.55;1.50;;;5.00;99.90;;;;;;4989936;28;20042;-51
2021/01/04 08:07:38;;;;;;;5.22;1.80;;;4.90;99.90;;;;;;4990376;28;20034;-52
2021/01/04 08:10:04;;;;;;;3.95;1.50;;;5.00;99.90;;;;;;4989932;28;20045;-49
2021/01/04 08:13:15;;;;;;;5.28;1.40;;;5.00;99.90;;;;;;4989627;28;20074;-55
2021/01/04 08:16:05;;;;;;;4.35;1.35;;;5.10;99.90;;;;;;4989652;28;20041;-50
2021/01/04 08:18:32;;;;;;;5.78;1.17;;;5.10;99.90;;;;;;4989117;28;20190;-55
2021/01/04 08:21:11;;;;;;;2.83;1.23;;;5.10;99.90;;;;;;4989494;28;20030;-56
2021/01/04 08:23:56;;;;;;;5.22;1.60;;;5.10;99.90;;;;;;4988437;28;20042;-54
2021/01/04 08:26:39;;;;;;;5.60;1.77;;;5.20;99.90;;;;;;4989156;28;20359;-55
2021/01/04 08:29:13;;;;;;;2.67;1.10;;;5.20;99.90;;;;;;4988993;28;20411;-51
2021/01/04 08:31:41;;;;;;;5.18;2.65;;;5.30;99.90;;;;;;4989161;28;20045;-53
2021/01/04 08:34:14;;;;;;;2.03;1.10;;;5.30;99.90;;;;;;4988888;28;20367;-57
2021/01/04 08:36:52;;;;;;;9.88;1.33;;;5.40;99.90;;;;;;4989420;28;20042;-49
2021/01/04 08:39:20;;;;;;;8.30;1.50;;;5.40;99.90;;;;;;4989075;28;20046;-53
2021/01/04 08:42:08;;;;;;;5.07;0.88;;;5.40;99.90;;;;;;4989191;28;20046;-52
2021/01/04 08:44:35;;;;;;;3.65;1.13;;;5.40;99.90;;;;;;4989620;28;20073;-55
2021/01/04 08:47:18;;;;;;;1.98;1.30;;;5.40;99.90;;;;;;4989141;28;20409;-56
2021/01/04 08:49:47;;;;;;;5.63;1.40;;;5.50;99.90;;;;;;4969400;28;20035;-49
2021/01/04 08:52:19;;;;;;;2.83;1.45;;;5.50;99.90;;;;;;4969952;28;20031;-54
2021/01/04 08:54:56;;;;;;;2.67;1.08;;;5.60;99.90;;;;;;4988556;28;20030;-56
2021/01/04 08:57:30;;;;;;;2.45;1.48;;;5.70;99.90;;;;;;4988852;28;20081;-55
2021/01/04 08:59:59;;;;;;;2.65;1.30;;;5.70;99.90;;;;;;4987599;28;20035;-53
2021/01/04 09:02:38;;;;;;;3.20;1.08;;;5.80;99.90;;;;;;4988155;28;20049;-52
2021/01/04 09:05:08;;;;;;;2.33;0.82;;;5.80;99.90;;;;;;4987524;28;20041;-53
2021/01/04 09:07:50;;;;;;;4.00;0.80;;;6.00;99.90;;;;;;4988606;28;20041;-56
2021/01/04 09:10:18;;;;;;;4.45;1.20;;;6.20;99.90;;;;;;4989409;28;20105;-50
2021/01/04 09:12:51;;;;;;;1.83;0.50;;;6.30;99.90;;;;;;4989288;28;20050;-53
2021/01/04 09:15:23;;;;;;;3.63;0.60;;;6.40;99.90;;;;;;4988625;28;20073;-53
2021/01/04 09:17:51;;;;;;;2.15;0.52;;;6.50;99.90;;;;;;4992532;28;20096;-51
2021/01/04 09:20:25;;;;;;;3.08;0.70;;;6.50;99.90;;;;;;4993160;28;20038;-53
2021/01/04 09:23:06;;;;;;;2.17;0.60;;;6.50;99.90;;;;;;4992622;28;20053;-55
2021/01/04 09:26:01;;;;;;;1.42;0.50;;;6.50;99.90;;;;;;4993099;28;20043;-53
2021/01/04 09:28:41;;;;;;;1.58;0.52;;;6.60;99.90;;;;;;4987838;28;20113;-57
2021/01/04 09:31:08;;;;;;;1.52;0.40;;;6.60;99.90;;;;;;4992614;28;20371;-54
2021/01/04 09:33:46;;;;;;;1.50;0.50;;;6.60;99.90;;;;;;4992800;28;20038;-57
2021/01/04 09:36:14;;;;;;;3.13;0.60;;;6.60;99.90;;;;;;4993009;28;20038;-50
2021/01/04 09:38:39;;;;;;;2.65;0.63;;;6.70;99.90;;;;;;4992688;28;20040;-52
2021/01/04 09:41:09;;;;;;;2.42;0.65;;;6.70;99.90;;;;;;4993085;28;20553;-51
2021/01/04 09:43:37;;;;;;;2.67;0.60;;;6.70;99.90;;;;;;4992422;28;20026;-54
2021/01/04 09:46:19;;;;;;;3.05;0.60;;;6.70;99.90;;;;;;4992639;28;20070;-56
2021/01/04 09:49:02;;;;;;;3.25;0.80;;;6.60;99.90;;;;;;4984269;28;20031;-51
2021/01/04 09:51:39;;;;;;;4.30;0.98;;;6.70;99.90;;;;;;4973492;28;20038;-53
2021/01/04 09:54:07;;;;;;;1.30;0.57;;;6.60;99.90;;;;;;4983874;28;20038;-54
2021/01/04 09:56:36;;;;;;;2.25;1.00;;;6.70;99.90;;;;;;4992206;28;20044;-53
2021/01/04 09:59:26;;;;;;;2.13;0.80;;;6.80;99.90;;;;;;4992515;28;20482;-53
2021/01/04 10:01:59;;;;;;;1.70;0.80;;;6.90;99.90;;;;;;4984420;28;20094;-53
2021/01/04 10:04:32;;;;;;;4.07;0.82;;;7.10;99.90;;;;;;4991426;28;20041;-54
2021/01/04 10:07:03;;;;;;;1.83;0.70;;;7.20;99.90;;;;;;4991753;28;20088;-54
2021/01/04 10:09:35;;;;;;;2.22;0.60;;;7.40;99.90;;;;;;4991542;28;20030;-57
2021/01/04 10:12:04;;;;;;;1.73;0.50;;;7.40;99.90;;;;;;4991504;28;20406;-53
2021/01/04 10:14:31;;;;;;;3.92;0.30;;;7.40;99.90;;;;;;4991365;28;20371;-56
2021/01/04 10:17:00;;;;;;;1.30;0.40;;;7.50;99.90;;;;;;4992589;28;20448;-50
2021/01/04 10:19:40;;;;;;;2.20;0.40;;;7.50;99.90;;;;;;4992033;28;20098;-57
2021/01/04 10:22:30;;;;;;;1.30;0.40;;;7.60;99.90;;;;;;4992155;28;20038;-50
2021/01/04 10:25:11;;;;;;;1.58;0.40;;;7.60;99.90;;;;;;4991153;28;20043;-53
2021/01/04 10:27:37;;;;;;;2.85;0.35;;;7.80;99.90;;;;;;4992253;28;20042;-53
2021/01/04 10:30:06;;;;;;;1.95;0.40;;;7.90;99.90;;;;;;4990659;28;20387;-56
2021/01/04 10:32:36;;;;;;;1.25;0.30;;;8.00;99.90;;;;;;4991405;28;20202;-53
2021/01/04 10:35:04;;;;;;;0.88;0.30;;;7.90;99.90;;;;;;4992008;28;20444;-52
2021/01/04 10:37:43;;;;;;;0.43;0.20;;;8.00;99.90;;;;;;4991161;28;20070;-56
2021/01/04 10:40:13;;;;;;;0.65;0.25;;;7.90;99.90;;;;;;4992351;28;20109;-56
2021/01/04 10:42:41;;;;;;;0.93;0.30;;;7.90;99.90;;;;;;4987546;28;20560;-47
2021/01/04 10:45:34;;;;;;;3.28;0.30;;;7.90;99.90;;;;;;4997290;28;20101;-53
2021/01/04 10:48:07;;;;;;;0.73;0.25;;;7.90;99.90;;;;;;4989973;28;20038;-56
2021/01/04 10:50:47;;;;;;;0.82;0.25;;;7.90;99.90;;;;;;4986113;28;20038;-52
2021/01/04 10:53:37;;;;;;;0.95;0.22;;;8.00;99.90;;;;;;4989015;28;20041;-54
2021/01/04 10:56:09;;;;;;;0.60;0.20;;;8.00;99.90;;;;;;4989384;28;20343;-49
2021/01/04 10:59:13;;;;;;;1.10;0.20;;;7.90;99.90;;;;;;4994456;28;20113;-49
2021/01/04 11:01:42;;;;;;;2.05;0.20;;;7.80;99.90;;;;;;4975195;28;20044;-52
2021/01/04 11:04:11;;;;;;;1.05;0.30;;;7.80;99.90;;;;;;4991086;28;20501;-51
2021/01/04 11:06:42;;;;;;;0.65;0.20;;;7.70;99.90;;;;;;4990095;28;20394;-53
2021/01/04 11:09:30;;;;;;;0.95;0.30;;;7.70;99.90;;;;;;4990106;28;20030;-53
2021/01/04 11:12:13;;;;;;;2.10;0.30;;;7.80;99.90;;;;;;4978411;28;20570;-52
2021/01/04 11:14:55;;;;;;;0.90;0.38;;;7.80;99.90;;;;;;4987139;28;20303;-49
2021/01/04 11:17:24;;;;;;;1.13;0.30;;;7.90;99.90;;;;;;4991080;28;20045;-48
2021/01/04 11:19:50;;;;;;;1.67;0.30;;;7.80;99.90;;;;;;4982809;28;20034;-52
2021/01/04 11:22:27;;;;;;;0.70;0.20;;;7.80;99.90;;;;;;4996941;28;20050;-55
2021/01/04 11:24:55;;;;;;;0.70;0.20;;;7.80;99.90;;;;;;5010372;28;20128;-57
2021/01/04 11:27:21;;;;;;;1.27;0.30;;;7.80;99.90;;;;;;4987195;28;20092;-50
2021/01/04 11:29:48;;;;;;;2.55;0.30;;;7.70;99.90;;;;;;4971492;28;20038;-51
2021/01/04 11:32:14;;;;;;;1.10;0.20;;;7.80;99.90;;;;;;4977447;28;20031;-53
2021/01/04 11:34:48;;;;;;;1.02;0.30;;;7.80;99.90;;;;;;4989908;28;20507;-55
2021/01/04 11:37:16;;;;;;;1.08;0.30;;;7.80;99.90;;;;;;4988834;28;20045;-54
2021/01/04 11:39:42;;;;;;;0.75;0.20;;;7.90;99.90;;;;;;4974821;28;20050;-53
2021/01/04 11:42:09;;;;;;;1.70;0.28;;;7.90;99.90;;;;;;4980280;28;20394;-56
2021/01/04 11:44:35;;;;;;;0.73;0.30;;;7.90;99.90;;;;;;4972794;28;20030;-53
2021/01/04 11:47:01;;;;;;;1.80;0.28;;;7.90;99.90;;;;;;4970598;28;20565;-54
2021/01/04 11:49:28;;;;;;;2.70;0.40;;;7.90;99.90;;;;;;4970775;28;20410;-52
2021/01/04 11:51:55;;;;;;;1.08;0.30;;;7.90;99.90;;;;;;4970473;28;20030;-55
2021/01/04 11:54:21;;;;;;;1.02;0.30;;;7.90;99.90;;;;;;4971182;28;20387;-52
2021/01/04 11:56:48;;;;;;;1.08;0.35;;;7.90;99.90;;;;;;4971068;28;20027;-53
2021/01/04 11:59:14;;;;;;;0.88;0.30;;;7.90;99.90;;;;;;4970885;28;20027;-55
2021/01/04 12:01:41;;;;;;;0.80;0.40;;;7.90;99.90;;;;;;4970637;28;20030;-54
2021/01/04 12:04:08;;;;;;;0.95;0.30;;;7.90;99.90;;;;;;4970814;28;20034;-53
2021/01/04 12:06:34;;;;;;;0.90;0.30;;;7.90;99.90;;;;;;4970717;28;20085;-55
2021/01/04 12:09:00;;;;;;;1.10;0.40;;;7.80;99.90;;;;;;4975055;28;20402;-51
2021/01/04 12:11:32;;;;;;;1.05;0.30;;;7.80;99.90;;;;;;4989453;28;20096;-54
2021/01/04 12:13:58;;;;;;;0.85;0.20;;;7.60;99.90;;;;;;4989075;28;20034;-56
2021/01/04 12:16:26;;;;;;;2.03;0.30;;;7.50;99.90;;;;;;4990138;28;20454;-55
2021/01/04 12:18:52;;;;;;;0.50;0.20;;;7.50;99.90;;;;;;4989781;28;20038;-52
2021/01/04 12:21:25;;;;;;;0.80;0.22;;;7.60;99.90;;;;;;4989542;28;20060;-55
2021/01/04 12:23:51;;;;;;;0.93;0.30;;;7.60;99.90;;;;;;4989706;28;20153;-51
2021/01/04 12:26:18;;;;;;;0.70;0.20;;;7.60;99.90;;;;;;4990086;28;20030;-55
2021/01/04 12:28:44;;;;;;;0.70;0.30;;;7.60;99.90;;;;;;4989595;28;20069;-55
2021/01/04 12:31:11;;;;;;;1.30;0.38;;;7.50;99.90;;;;;;4989499;28;20038;-51
2021/01/04 12:33:37;;;;;;;1.90;0.20;;;7.50;99.90;;;;;;4989493;28;20324;-53
2021/01/04 12:36:03;;;;;;;0.73;0.30;;;7.40;99.90;;;;;;4989933;28;20093;-54
2021/01/04 12:38:29;;;;;;;0.65;0.30;;;7.40;99.90;;;;;;4989739;28;20026;-55
2021/01/04 12:40:55;;;;;;;1.30;0.30;;;7.40;99.90;;;;;;4989765;28;20470;-55
2021/01/04 12:43:20;;;;;;;1.10;0.40;;;7.40;99.90;;;;;;4989578;28;20049;-52
2021/01/04 12:45:46;;;;;;;1.35;0.30;;;7.40;99.90;;;;;;4989712;28;20058;-53
2021/01/04 12:48:12;;;;;;;0.60;0.20;;;7.30;99.90;;;;;;4989796;28;20026;-52
2021/01/04 12:50:38;;;;;;;4.68;0.47;;;7.30;99.90;;;;;;4989788;28;20140;-55
2021/01/04 12:53:03;;;;;;;1.20;0.35;;;7.30;99.90;;;;;;4989718;28;20058;-52
2021/01/04 12:55:29;;;;;;;1.98;0.75;;;7.40;99.90;;;;;;4989559;28;20038;-50
2021/01/04 12:57:56;;;;;;;1.75;0.60;;;7.40;99.90;;;;;;4989527;28;20229;-54
2021/01/04 13:00:23;;;;;;;2.22;0.90;;;7.40;99.90;;;;;;4989336;28;20652;-51
2021/01/04 13:02:50;;;;;;;3.15;0.70;;;7.50;99.90;;;;;;4989148;28;20116;-56
2021/01/04 13:05:16;;;;;;;2.72;1.23;;;7.50;99.90;;;;;;4989329;28;20039;-53
2021/01/04 13:07:43;;;;;;;5.57;1.35;;;7.50;99.90;;;;;;4989291;28;20076;-53
2021/01/04 13:10:10;;;;;;;3.65;1.60;;;7.60;99.90;;;;;;4989277;28;20027;-56
2021/01/04 13:12:37;;;;;;;2.90;1.00;;;7.60;99.90;;;;;;4988961;28;20067;-55
2021/01/04 13:15:07;;;;;;;8.13;1.95;;;7.60;99.90;;;;;;4989061;28;20044;-53
2021/01/04 13:17:33;;;;;;;2.38;0.80;;;7.60;99.90;;;;;;4989257;28;20490;-53
2021/01/04 13:19:59;;;;;;;3.35;0.88;;;7.60;99.90;;;;;;4989106;28;20521;-56
2021/01/04 13:22:26;;;;;;;3.38;1.10;;;7.70;99.90;;;;;;4989056;28;20046;-58
2021/01/04 13:24:58;;;;;;;1.23;0.70;;;7.60;99.90;;;;;;4989035;28;20026;-53
2021/01/04 13:27:25;;;;;;;2.20;0.60;;;7.70;99.90;;;;;;4989253;28;20379;-54
2021/01/04 13:29:52;;;;;;;1.92;0.63;;;7.70;99.90;;;;;;4989060;28;20034;-50
2021/01/04 13:32:18;;;;;;;1.70;0.70;;;7.70;99.90;;;;;;4989286;28;20502;-56
2021/01/04 13:34:45;;;;;;;1.95;0.80;;;7.70;99.90;;;;;;4987455;28;20031;-55
2021/01/04 13:37:11;;;;;;;1.23;0.45;;;7.70;99.90;;;;;;4989339;28;20046;-50
2021/01/04 13:39:37;;;;;;;0.95;0.50;;;7.60;99.90;;;;;;4989844;28;20054;-53
2021/01/04 13:42:04;;;;;;;1.23;0.40;;;7.60;99.90;;;;;;4987507;28;20049;-55
2021/01/04 13:44:31;;;;;;;1.35;0.50;;;7.60;99.90;;;;;;4988252;28;20038;-56
2021/01/04 13:46:59;;;;;;;1.08;0.50;;;7.60;99.90;;;;;;4988362;28;20113;-55
2021/01/04 13:49:25;;;;;;;1.83;0.40;;;7.60;99.90;;;;;;4987445;28;20085;-56
2021/01/04 13:51:51;;;;;;;2.78;0.77;;;7.60;99.90;;;;;;4989070;28;20082;-54
2021/01/04 13:54:16;;;;;;;1.67;0.80;;;7.50;99.90;;;;;;4977906;28;20113;-57
2021/01/04 13:56:50;;;;;;;2.40;0.93;;;7.60;99.90;;;;;;4969476;28;20042;-53
2021/01/04 13:59:16;;;;;;;2.53;1.20;;;7.50;99.90;;;;;;4974833;28;20038;-49
2021/01/04 14:01:42;;;;;;;3.40;1.65;;;7.50;99.90;;;;;;5012064;28;20037;-55